createdAt,value
2022-08-31T00:03:28.542Z,25.38
2022-08-31T00:08:26.570Z,25.36
2022-08-31T00:13:24.564Z,25.09
2022-08-31T00:18:22.707Z,25.15
2022-08-31T00:23:19.773Z,24.72
2022-08-31T00:28:17.646Z,25.10
2022-08-31T00:33:15.062Z,25.17
2022-08-31T00:38:14.422Z,25.37
2022-08-31T00:43:28.550Z,25.24
2022-08-31T00:48:26.533Z,25.02
2022-08-31T00:53:24.783Z,25.06
2022-08-31T00:58:22.192Z,24.81
2022-08-31T01:03:21.201Z,24.76
2022-08-31T01:08:18.272Z,24.81
2022-08-31T01:13:24.781Z,24.92
2022-08-31T01:18:23.877Z,25.11
2022-08-31T01:23:26.048Z,25.23
2022-08-31T01:28:23.136Z,25.37
2022-08-31T01:33:21.642Z,25.50
2022-08-31T01:38:18.471Z,25.13
2022-08-31T01:43:16.550Z,24.30
2022-08-31T01:48:14.356Z,24.47
2022-08-31T01:53:12.265Z,24.62
2022-08-31T01:58:09.502Z,24.72
2022-08-31T02:03:25.438Z,24.58
2022-08-31T02:08:22.362Z,24.71
2022-08-31T02:13:20.929Z,24.67
2022-08-31T02:18:20.270Z,24.72
2022-08-31T02:23:20.581Z,24.87
2022-08-31T02:28:18.411Z,24.80
2022-08-31T02:33:15.354Z,24.86
2022-08-31T02:38:12.317Z,24.93
2022-08-31T02:43:12.862Z,24.91
2022-08-31T02:48:22.158Z,24.68
2022-08-31T02:53:23.188Z,24.56
2022-08-31T02:58:24.072Z,24.58
2022-08-31T03:03:22.205Z,24.35
2022-08-31T03:08:19.401Z,24.22
2022-08-31T03:13:20.453Z,24.05
2022-08-31T03:18:17.666Z,23.77
2022-08-31T03:23:14.841Z,23.80
2022-08-31T03:28:12.082Z,23.81
2022-08-31T03:33:13.599Z,23.72
2022-08-31T03:38:14.430Z,23.68
2022-08-31T03:43:12.712Z,23.66
2022-08-31T03:48:12.911Z,23.26
2022-08-31T03:53:12.550Z,23.48
2022-08-31T03:58:10.639Z,23.53
2022-08-31T04:03:07.898Z,23.50
2022-08-31T04:08:28.584Z,23.24
2022-08-31T04:13:58.054Z,23.64
2022-08-31T04:19:16.248Z,23.43
2022-08-31T04:24:26.553Z,23.26
2022-08-31T04:29:38.530Z,23.60
2022-08-31T04:34:40.985Z,23.13
2022-08-31T04:39:50.698Z,23.45
2022-08-31T04:44:48.218Z,23.51
2022-08-31T04:49:49.610Z,23.24
2022-08-31T04:55:43.357Z,22.73
2022-08-31T05:00:57.655Z,23.23
2022-08-31T05:06:18.364Z,23.39
2022-08-31T05:11:21.795Z,23.22
2022-08-31T05:16:31.498Z,23.66
2022-08-31T05:21:31.290Z,23.72
2022-08-31T05:26:31.219Z,23.80
2022-08-31T05:31:29.450Z,24.20
2022-08-31T05:36:32.393Z,25.20
2022-08-31T05:41:33.492Z,25.45
2022-08-31T05:46:34.408Z,26.64
2022-08-31T05:51:40.151Z,27.75
2022-08-31T05:56:46.505Z,28.06
2022-08-31T06:01:52.991Z,28.67
2022-08-31T06:07:04.923Z,28.96
2022-08-31T06:12:16.996Z,29.19
2022-08-31T06:17:31.715Z,29.77
2022-08-31T06:22:37.909Z,30.05
2022-08-31T06:28:25.330Z,29.39
2022-08-31T06:33:24.344Z,29.69
2022-08-31T06:38:45.016Z,30.93
2022-08-31T06:44:05.090Z,31.28
2022-08-31T06:49:15.587Z,31.44
2022-08-31T06:54:29.319Z,31.61
2022-08-31T06:59:45.402Z,32.65
2022-08-31T07:05:24.338Z,33.12
2022-08-31T07:10:24.874Z,32.91
2022-08-31T07:15:24.562Z,32.56
2022-08-31T07:20:34.353Z,32.99
2022-08-31T07:25:31.809Z,33.05
2022-08-31T07:30:33.324Z,33.18
2022-08-31T07:35:35.051Z,33.35
2022-08-31T07:41:08.069Z,33.16
2022-08-31T07:46:16.365Z,33.55
2022-08-31T07:51:24.249Z,34.31
2022-08-31T07:56:46.203Z,34.55
2022-08-31T08:01:47.860Z,34.13
2022-08-31T08:06:49.171Z,34.31
2022-08-31T08:12:18.617Z,35.28
2022-08-31T08:17:58.111Z,35.04
2022-08-31T08:23:00.241Z,35.15
2022-08-31T08:28:39.892Z,34.57
2022-08-31T08:33:39.574Z,34.75
2022-08-31T08:38:43.035Z,34.64
2022-08-31T08:43:47.980Z,35.02
2022-08-31T08:48:55.528Z,35.00
2022-08-31T08:54:02.074Z,34.73
2022-08-31T08:59:07.322Z,35.07
2022-08-31T09:04:20.650Z,35.09
2022-08-31T09:10:27.883Z,35.04
2022-08-31T09:15:36.254Z,35.80
2022-08-31T09:20:35.337Z,36.96
2022-08-31T09:26:17.648Z,38.12
2022-08-31T09:31:37.010Z,39.31
2022-08-31T09:36:40.256Z,39.39
2022-08-31T09:41:38.027Z,38.93
2022-08-31T09:46:47.142Z,37.43
2022-08-31T09:53:06.417Z,37.34
2022-08-31T09:58:13.785Z,37.09
2022-08-31T10:04:02.157Z,37.00
2022-08-31T10:09:04.090Z,36.59
2022-08-31T10:14:29.513Z,36.79
2022-08-31T10:19:39.007Z,37.05
2022-08-31T10:24:45.735Z,37.10
2022-08-31T10:29:54.330Z,37.19
2022-08-31T10:35:05.216Z,37.28
2022-08-31T10:40:20.295Z,36.47
2022-08-31T10:45:25.614Z,36.28
2022-08-31T10:50:30.106Z,35.98
2022-08-31T10:55:36.834Z,35.27
2022-08-31T11:01:03.148Z,34.34
2022-08-31T11:06:05.776Z,34.71
2022-08-31T11:11:15.663Z,34.19
2022-08-31T11:16:33.831Z,33.59
2022-08-31T11:22:11.960Z,32.88
2022-08-31T11:27:25.870Z,32.89
2022-08-31T11:38:02.006Z,32.99
2022-08-31T11:43:00.767Z,32.80
2022-08-31T11:48:01.046Z,32.84
2022-08-31T11:53:19.900Z,32.59
2022-08-31T11:58:54.167Z,32.35
2022-08-31T12:03:55.109Z,32.51
2022-08-31T12:08:59.696Z,32.37
2022-08-31T12:14:01.528Z,32.33
2022-08-31T12:19:42.462Z,32.43
2022-08-31T12:24:51.990Z,32.09
2022-08-31T12:29:50.672Z,32.42
2022-08-31T12:35:05.360Z,32.20
2022-08-31T12:40:30.744Z,32.54
2022-08-31T12:45:56.522Z,32.00
2022-08-31T12:51:09.773Z,32.84
2022-08-31T12:56:31.111Z,32.60
2022-08-31T13:01:49.345Z,32.76
2022-08-31T13:06:48.340Z,32.57
2022-08-31T13:11:54.484Z,32.45
2022-08-31T13:16:53.642Z,32.60
2022-08-31T13:21:54.520Z,32.42
2022-08-31T13:27:04.269Z,32.53
2022-08-31T13:32:01.485Z,32.49
2022-08-31T13:36:59.226Z,32.25
2022-08-31T13:42:05.243Z,32.07
2022-08-31T13:47:04.840Z,32.47
2022-08-31T13:52:04.531Z,31.97
2022-08-31T13:57:24.377Z,32.28
2022-08-31T14:02:36.890Z,31.98
2022-08-31T14:07:54.243Z,32.35
2022-08-31T14:12:55.305Z,32.43
2022-08-31T14:18:27.145Z,32.37
2022-08-31T14:23:32.282Z,32.18
2022-08-31T14:28:40.337Z,32.29
2022-08-31T14:33:37.636Z,32.39
2022-08-31T14:39:14.787Z,32.63
2022-08-31T14:44:24.549Z,32.64
2022-08-31T14:49:24.833Z,32.39
2022-08-31T14:54:24.311Z,32.19
2022-08-31T14:59:24.113Z,32.31
2022-08-31T15:04:42.829Z,32.22
2022-08-31T15:10:01.263Z,32.38
2022-08-31T15:20:30.070Z,31.94
2022-08-31T15:25:36.264Z,31.73
2022-08-31T15:30:47.271Z,31.82
2022-08-31T15:35:49.761Z,32.09
2022-08-31T15:40:48.626Z,31.71
2022-08-31T15:46:13.675Z,31.51
2022-08-31T15:51:23.149Z,31.44
2022-08-31T15:56:22.632Z,31.34
2022-08-31T16:01:22.398Z,31.53
2022-08-31T16:06:38.260Z,31.40
2022-08-31T16:11:37.394Z,31.37
2022-08-31T16:16:36.349Z,31.27
2022-08-31T16:21:40.560Z,30.93
2022-08-31T16:26:48.160Z,30.91
2022-08-31T16:31:46.002Z,30.74
2022-08-31T16:36:43.459Z,30.67
2022-08-31T16:41:49.016Z,30.26
2022-08-31T16:46:46.107Z,30.06
2022-08-31T16:51:48.029Z,30.30
2022-08-31T16:57:13.124Z,30.24
2022-08-31T17:02:12.420Z,29.66
2022-08-31T17:07:11.370Z,29.98
2022-08-31T17:12:15.402Z,29.92
2022-08-31T17:17:15.106Z,29.47
2022-08-31T17:22:23.490Z,29.65
2022-08-31T17:27:36.405Z,29.35
2022-08-31T17:32:45.066Z,29.45
2022-08-31T17:37:42.978Z,29.47
2022-08-31T17:42:41.502Z,29.22
2022-08-31T17:47:38.718Z,28.73
2022-08-31T17:52:49.732Z,28.97
2022-08-31T17:57:50.583Z,29.00
2022-08-31T18:02:59.020Z,28.77
2022-08-31T18:07:56.003Z,28.59
2022-08-31T18:12:58.615Z,28.67
2022-08-31T18:17:58.691Z,28.09
2022-08-31T18:22:58.274Z,28.11
2022-08-31T18:27:56.273Z,28.17
2022-08-31T18:32:53.467Z,27.96
2022-08-31T18:37:50.744Z,27.79
2022-08-31T18:43:05.961Z,27.36
2022-08-31T18:53:27.616Z,27.48
2022-08-31T18:58:28.195Z,27.11
2022-08-31T19:03:27.069Z,27.22
2022-08-31T19:08:25.125Z,26.58
2022-08-31T19:13:24.213Z,27.07
2022-08-31T19:18:21.344Z,27.09
2022-08-31T19:23:20.351Z,26.97
2022-08-31T19:28:18.886Z,26.79
2022-08-31T19:33:17.072Z,27.43
2022-08-31T19:38:14.365Z,27.28
2022-08-31T19:48:31.502Z,27.21
2022-08-31T19:53:28.757Z,26.32
2022-08-31T19:58:26.721Z,26.93
2022-08-31T20:03:26.907Z,26.75
2022-08-31T20:08:24.107Z,26.32
2022-08-31T20:13:27.918Z,26.93
2022-08-31T20:18:27.513Z,26.55
2022-08-31T20:23:24.869Z,26.56
2022-08-31T20:28:25.540Z,26.45
2022-08-31T20:33:35.735Z,26.25
2022-08-31T20:38:40.658Z,25.78
2022-08-31T20:43:40.890Z,25.88
2022-08-31T20:48:56.435Z,25.27
2022-08-31T20:53:53.556Z,25.38
2022-08-31T20:58:50.979Z,24.68
2022-08-31T21:03:49.086Z,25.30
2022-08-31T21:08:46.000Z,25.10
2022-08-31T21:13:44.035Z,25.24
2022-08-31T21:18:40.919Z,25.13
2022-08-31T21:23:38.996Z,24.86
2022-08-31T21:28:37.702Z,24.93
2022-08-31T21:33:34.671Z,24.81
2022-08-31T21:38:32.423Z,24.83
2022-08-31T21:43:30.482Z,24.54
2022-08-31T21:48:28.763Z,24.40
2022-08-31T21:53:26.594Z,24.12
2022-08-31T21:58:23.507Z,23.93
2022-08-31T22:03:22.005Z,23.92
2022-08-31T22:08:19.436Z,23.84
2022-08-31T22:13:16.564Z,23.87
2022-08-31T22:23:31.357Z,23.50
2022-08-31T22:28:28.567Z,24.08
2022-08-31T22:33:28.815Z,24.07
2022-08-31T22:38:26.173Z,23.89
2022-08-31T22:43:25.197Z,24.14
2022-08-31T22:48:22.563Z,23.82
2022-08-31T22:53:19.805Z,24.24
2022-08-31T22:58:17.101Z,24.22
2022-08-31T23:03:15.257Z,24.13
2022-08-31T23:08:14.477Z,24.02
2022-08-31T23:13:13.222Z,24.08
2022-08-31T23:18:10.595Z,23.86
2022-08-31T23:23:09.849Z,24.05
2022-08-31T23:28:08.350Z,23.89
2022-08-31T23:33:05.512Z,23.70
2022-08-31T23:38:02.677Z,24.12
2022-08-31T23:43:00.479Z,24.22
2022-08-31T23:47:57.813Z,24.04
2022-08-31T23:52:54.941Z,24.13
2022-08-31T23:57:54.352Z,23.96
